createdAt,value
2023-10-19T00:00:47.049Z,100.00
2023-10-19T00:03:15.906Z,100.00
2023-10-19T00:05:44.135Z,100.00
2023-10-19T00:08:14.218Z,100.00
2023-10-19T00:10:52.642Z,100.00
2023-10-19T00:13:20.863Z,100.00
2023-10-19T00:15:53.349Z,100.00
2023-10-19T00:18:22.892Z,100.00
2023-10-19T00:21:01.306Z,100.00
2023-10-19T00:23:36.479Z,100.00
2023-10-19T00:26:16.359Z,100.00
2023-10-19T00:28:54.374Z,100.00
2023-10-19T00:31:23.360Z,100.00
2023-10-19T00:33:55.984Z,100.00
2023-10-19T00:36:25.380Z,100.00
2023-10-19T00:38:54.737Z,100.00
2023-10-19T00:41:32.510Z,100.00
2023-10-19T00:44:07.100Z,100.00
2023-10-19T00:46:55.543Z,100.00
2023-10-19T00:49:25.179Z,100.00
2023-10-19T00:51:54.289Z,100.00
2023-10-19T00:54:35.503Z,100.00
2023-10-19T00:57:09.281Z,100.00
2023-10-19T00:59:45.105Z,100.00
2023-10-19T01:02:23.020Z,100.00
2023-10-19T01:04:58.049Z,100.00
2023-10-19T01:07:31.032Z,100.00
2023-10-19T01:10:01.544Z,100.00
2023-10-19T01:12:35.025Z,100.00
2023-10-19T01:15:14.935Z,100.00
2023-10-19T01:17:48.304Z,100.00
2023-10-19T01:20:24.580Z,100.00
2023-10-19T01:23:09.774Z,100.00
2023-10-19T01:26:01.085Z,100.00
2023-10-19T01:28:44.051Z,100.00
2023-10-19T01:31:30.050Z,100.00
2023-10-19T01:34:00.421Z,100.00
2023-10-19T01:36:28.571Z,100.00
2023-10-19T01:39:02.061Z,100.00
2023-10-19T01:41:32.385Z,100.00
2023-10-19T01:44:06.260Z,100.00
2023-10-19T01:46:36.811Z,100.00
2023-10-19T01:49:05.785Z,100.00
2023-10-19T01:51:39.493Z,100.00
2023-10-19T01:54:09.102Z,100.00
2023-10-19T01:56:37.413Z,100.00
2023-10-19T01:59:05.748Z,100.00
2023-10-19T02:01:34.476Z,100.00
2023-10-19T02:04:06.964Z,100.00
2023-10-19T02:06:36.125Z,100.00
2023-10-19T02:09:24.529Z,100.00
2023-10-19T02:11:56.580Z,100.00
2023-10-19T02:14:26.644Z,100.00
2023-10-19T02:16:57.993Z,100.00
2023-10-19T02:19:27.651Z,100.00
2023-10-19T02:21:58.224Z,100.00
2023-10-19T02:24:27.014Z,100.00
2023-10-19T02:26:57.003Z,100.00
2023-10-19T02:29:25.024Z,100.00
2023-10-19T02:31:54.104Z,100.00
2023-10-19T02:34:21.983Z,100.00
2023-10-19T02:36:49.375Z,100.00
2023-10-19T02:39:18.500Z,100.00
2023-10-19T02:41:49.288Z,100.00
2023-10-19T02:44:18.447Z,100.00
2023-10-19T02:46:48.269Z,100.00
2023-10-19T02:49:19.781Z,100.00
2023-10-19T02:51:50.831Z,100.00
2023-10-19T02:54:21.030Z,100.00
2023-10-19T02:56:51.201Z,100.00
2023-10-19T02:59:24.347Z,100.00
2023-10-19T03:02:12.856Z,100.00
2023-10-19T03:04:43.053Z,100.00
2023-10-19T03:07:14.741Z,100.00
2023-10-19T03:09:50.222Z,100.00
2023-10-19T03:12:19.995Z,100.00
2023-10-19T03:14:49.367Z,100.00
2023-10-19T03:17:17.254Z,100.00
2023-10-19T03:19:45.653Z,100.00
2023-10-19T03:22:14.129Z,100.00
2023-10-19T03:24:42.322Z,100.00
2023-10-19T03:27:25.464Z,100.00
2023-10-19T03:29:57.329Z,100.00
2023-10-19T03:32:33.892Z,100.00
2023-10-19T03:35:02.649Z,100.00
2023-10-19T03:37:32.504Z,100.00
2023-10-19T03:40:00.751Z,100.00
2023-10-19T03:42:33.450Z,100.00
2023-10-19T03:45:03.870Z,100.00
2023-10-19T03:47:40.278Z,100.00
2023-10-19T03:50:08.965Z,100.00
2023-10-19T03:52:40.823Z,100.00
2023-10-19T03:55:24.965Z,100.00
2023-10-19T03:57:55.694Z,100.00
2023-10-19T04:00:29.420Z,100.00
2023-10-19T04:02:59.967Z,100.00
2023-10-19T04:05:29.760Z,100.00
2023-10-19T04:07:59.005Z,100.00
2023-10-19T04:10:35.871Z,100.00
2023-10-19T04:13:04.319Z,100.00
2023-10-19T04:15:35.699Z,100.00
2023-10-19T04:18:12.458Z,100.00
2023-10-19T04:20:49.460Z,100.00
2023-10-19T04:23:17.662Z,100.00
2023-10-19T04:25:47.869Z,100.00
2023-10-19T04:28:16.935Z,100.00
2023-10-19T04:30:44.832Z,100.00
2023-10-19T04:33:12.631Z,100.00
2023-10-19T04:35:42.915Z,100.00
2023-10-19T04:38:11.254Z,100.00
2023-10-19T04:40:38.518Z,100.00
2023-10-19T04:43:06.903Z,100.00
2023-10-19T04:45:34.707Z,100.00
2023-10-19T04:48:04.316Z,100.00
2023-10-19T04:50:31.875Z,100.00
2023-10-19T04:53:00.157Z,100.00
2023-10-19T04:55:28.920Z,100.00
2023-10-19T04:57:56.480Z,100.00
2023-10-19T05:00:26.065Z,100.00
2023-10-19T05:02:53.902Z,100.00
2023-10-19T05:05:21.950Z,100.00
2023-10-19T05:07:50.826Z,100.00
2023-10-19T05:10:18.642Z,100.00
2023-10-19T05:12:45.993Z,100.00
2023-10-19T05:15:14.018Z,100.00
2023-10-19T05:17:42.102Z,100.00
2023-10-19T05:20:10.509Z,100.00
2023-10-19T05:22:38.654Z,100.00
2023-10-19T05:25:09.078Z,100.00
2023-10-19T05:27:36.612Z,100.00
2023-10-19T05:30:05.900Z,100.00
2023-10-19T05:32:34.781Z,100.00
2023-10-19T05:35:05.947Z,100.00
2023-10-19T05:37:35.238Z,100.00
2023-10-19T05:40:02.574Z,100.00
2023-10-19T05:42:30.864Z,100.00
2023-10-19T05:44:58.604Z,100.00
2023-10-19T05:47:26.394Z,100.00
2023-10-19T05:49:54.912Z,100.00
2023-10-19T05:52:23.876Z,100.00
2023-10-19T05:54:51.362Z,100.00
2023-10-19T05:57:18.946Z,100.00
2023-10-19T05:59:47.115Z,100.00
2023-10-19T06:02:14.686Z,100.00
2023-10-19T06:04:42.593Z,100.00
2023-10-19T06:07:10.062Z,100.00
2023-10-19T06:09:37.431Z,100.00
2023-10-19T06:12:05.383Z,100.00
2023-10-19T06:14:33.160Z,100.00
2023-10-19T06:17:02.252Z,100.00
2023-10-19T06:19:30.215Z,100.00
2023-10-19T06:21:57.664Z,100.00
2023-10-19T06:24:25.010Z,100.00
2023-10-19T06:26:54.001Z,100.00
2023-10-19T06:29:21.263Z,100.00
2023-10-19T06:31:48.612Z,100.00
2023-10-19T06:34:18.610Z,100.00
2023-10-19T06:36:46.725Z,100.00
2023-10-19T06:39:14.747Z,100.00
2023-10-19T06:41:42.411Z,100.00
2023-10-19T06:44:09.790Z,100.00
2023-10-19T06:46:37.461Z,100.00
2023-10-19T06:49:05.484Z,100.00
2023-10-19T06:51:34.621Z,100.00
2023-10-19T06:54:02.810Z,100.00
2023-10-19T06:56:32.227Z,100.00
2023-10-19T06:59:00.227Z,100.00
2023-10-19T07:01:30.980Z,100.00
2023-10-19T07:03:59.925Z,100.00
2023-10-19T07:06:27.935Z,100.00
2023-10-19T07:08:55.225Z,100.00
2023-10-19T07:11:25.400Z,100.00
2023-10-19T07:13:52.932Z,100.00
2023-10-19T07:16:21.489Z,100.00
2023-10-19T07:18:49.412Z,100.00
2023-10-19T07:21:38.294Z,100.00
2023-10-19T07:24:10.614Z,100.00
2023-10-19T07:26:52.745Z,100.00
2023-10-19T07:29:23.601Z,100.00
2023-10-19T07:31:53.528Z,100.00
2023-10-19T07:34:26.590Z,100.00
2023-10-19T07:36:55.436Z,100.00
2023-10-19T07:39:24.392Z,100.00
2023-10-19T07:41:53.353Z,99.62
2023-10-19T07:44:20.754Z,100.00
2023-10-19T07:46:48.484Z,100.00
2023-10-19T07:49:16.013Z,100.00
2023-10-19T07:51:48.563Z,100.00
2023-10-19T07:54:17.254Z,99.52
2023-10-19T07:56:45.169Z,99.14
2023-10-19T07:59:13.653Z,97.62
2023-10-19T08:01:41.540Z,96.74
2023-10-19T08:04:09.532Z,94.36
2023-10-19T08:06:37.332Z,93.92
2023-10-19T08:09:06.316Z,91.87
2023-10-19T08:11:35.177Z,94.02
2023-10-19T08:14:02.700Z,94.49
2023-10-19T08:16:30.189Z,94.41
2023-10-19T08:18:59.532Z,94.69
2023-10-19T08:21:30.006Z,94.85
2023-10-19T08:23:57.719Z,93.99
2023-10-19T08:26:25.176Z,96.01
2023-10-19T08:28:52.797Z,98.34
2023-10-19T08:31:21.010Z,100.00
2023-10-19T08:33:49.047Z,100.00
2023-10-19T08:36:22.943Z,99.71
2023-10-19T08:38:51.012Z,98.33
2023-10-19T08:41:18.741Z,96.36
2023-10-19T08:43:46.434Z,91.24
2023-10-19T08:46:15.043Z,89.61
2023-10-19T08:48:42.894Z,89.84
2023-10-19T08:51:11.651Z,88.05
2023-10-19T08:53:42.055Z,87.71
2023-10-19T08:56:09.918Z,81.82
2023-10-19T08:58:37.468Z,79.06
2023-10-19T09:01:08.345Z,79.56
2023-10-19T09:03:36.273Z,80.19
2023-10-19T09:06:06.591Z,80.13
2023-10-19T09:08:41.050Z,80.82
2023-10-19T09:11:10.423Z,82.61
2023-10-19T09:13:48.352Z,82.30
2023-10-19T09:16:17.840Z,81.81
2023-10-19T09:18:48.663Z,83.28
2023-10-19T09:21:27.104Z,82.05
2023-10-19T09:23:57.268Z,84.05
2023-10-19T09:26:26.356Z,82.44
2023-10-19T09:28:55.340Z,82.67
2023-10-19T09:31:26.122Z,82.58
2023-10-19T09:33:58.520Z,80.93
2023-10-19T09:36:31.257Z,79.61
2023-10-19T09:38:59.407Z,80.55
2023-10-19T09:41:30.249Z,81.19
2023-10-19T09:44:12.225Z,81.62
2023-10-19T09:46:42.180Z,82.00
2023-10-19T09:49:13.252Z,77.43
2023-10-19T09:51:49.079Z,76.97
2023-10-19T09:54:32.931Z,74.48
2023-10-19T09:57:11.721Z,73.66
2023-10-19T09:59:42.396Z,72.58
2023-10-19T10:02:15.053Z,74.02
2023-10-19T10:04:47.046Z,73.60
2023-10-19T10:07:25.735Z,75.11
2023-10-19T10:10:00.709Z,74.19
2023-10-19T10:12:31.228Z,71.88
2023-10-19T10:15:09.948Z,71.54
2023-10-19T10:17:41.124Z,70.78
2023-10-19T10:20:14.966Z,70.73
2023-10-19T10:22:43.560Z,68.17
2023-10-19T10:25:32.239Z,69.44
2023-10-19T10:28:00.078Z,69.88
2023-10-19T10:30:29.449Z,68.79
2023-10-19T10:32:57.779Z,70.04
2023-10-19T10:35:37.695Z,69.16
2023-10-19T10:38:07.421Z,69.51
2023-10-19T10:40:45.205Z,67.84
2023-10-19T10:43:13.609Z,68.12
2023-10-19T10:45:41.669Z,66.51
2023-10-19T10:48:23.868Z,66.74
2023-10-19T10:50:51.662Z,66.48
2023-10-19T10:53:19.431Z,66.98
2023-10-19T10:55:47.025Z,66.35
2023-10-19T10:58:19.267Z,65.35
2023-10-19T11:00:53.119Z,65.77
2023-10-19T11:03:23.397Z,64.04
2023-10-19T11:05:50.955Z,65.02
2023-10-19T11:08:22.153Z,65.37
2023-10-19T11:10:50.566Z,64.90
2023-10-19T11:13:23.694Z,63.03
2023-10-19T11:15:59.771Z,62.09
2023-10-19T11:18:38.641Z,59.73
2023-10-19T11:21:11.698Z,60.92
2023-10-19T11:23:50.882Z,60.59
2023-10-19T11:26:26.307Z,56.54
2023-10-19T11:29:05.674Z,54.55
2023-10-19T11:31:39.313Z,54.93
2023-10-19T11:34:08.889Z,56.17
2023-10-19T11:36:37.066Z,53.05
2023-10-19T11:39:05.969Z,53.70
2023-10-19T11:41:33.191Z,53.94
2023-10-19T11:44:01.785Z,52.09
2023-10-19T11:46:30.876Z,52.58
2023-10-19T11:48:58.265Z,52.17
2023-10-19T11:51:26.061Z,53.70
2023-10-19T11:53:53.498Z,52.38
2023-10-19T11:56:22.282Z,55.78
2023-10-19T11:58:50.143Z,53.65
2023-10-19T12:01:20.392Z,53.70
2023-10-19T12:03:50.088Z,52.23
2023-10-19T12:06:21.241Z,52.68
2023-10-19T12:08:49.216Z,53.47
2023-10-19T12:11:16.981Z,53.68
2023-10-19T12:13:45.449Z,52.58
2023-10-19T12:16:21.058Z,51.60
2023-10-19T12:18:50.055Z,52.05
2023-10-19T12:21:19.785Z,52.03
2023-10-19T12:23:52.883Z,49.31
2023-10-19T12:26:21.316Z,48.08
2023-10-19T12:28:50.623Z,49.87
2023-10-19T12:31:20.638Z,50.74
2023-10-19T12:33:48.753Z,47.85
2023-10-19T12:36:28.676Z,46.34
2023-10-19T12:38:56.837Z,47.22
2023-10-19T12:41:25.881Z,46.38
2023-10-19T12:44:00.222Z,46.84
2023-10-19T12:46:31.170Z,45.57
2023-10-19T12:48:59.599Z,45.38
2023-10-19T12:51:27.301Z,44.95
2023-10-19T12:53:56.096Z,45.11
2023-10-19T12:56:30.693Z,44.15
2023-10-19T12:58:58.526Z,44.19
2023-10-19T13:01:28.851Z,43.32
2023-10-19T13:03:56.985Z,44.98
2023-10-19T13:06:30.560Z,46.36
2023-10-19T13:08:59.218Z,45.34
2023-10-19T13:11:28.789Z,44.47
2023-10-19T13:13:56.336Z,44.67
2023-10-19T13:16:24.119Z,43.80
2023-10-19T13:18:52.112Z,43.30
2023-10-19T13:21:23.601Z,44.72
2023-10-19T13:23:51.038Z,43.78
2023-10-19T13:26:19.132Z,44.96
2023-10-19T13:28:48.285Z,44.55
2023-10-19T13:31:17.213Z,45.97
2023-10-19T13:33:47.868Z,47.77
2023-10-19T13:36:15.372Z,49.21
2023-10-19T13:38:43.750Z,51.28
2023-10-19T13:41:12.337Z,51.90
2023-10-19T13:43:41.365Z,52.15
2023-10-19T13:46:22.694Z,52.75
2023-10-19T13:48:50.642Z,52.89
2023-10-19T13:51:21.491Z,53.66
2023-10-19T13:53:51.232Z,53.82
2023-10-19T13:56:19.117Z,55.34
2023-10-19T13:58:48.402Z,54.20
2023-10-19T14:01:18.002Z,51.61
2023-10-19T14:03:46.468Z,48.41
2023-10-19T14:06:15.536Z,45.18
2023-10-19T14:08:43.346Z,40.72
2023-10-19T14:11:11.242Z,38.70
2023-10-19T14:13:38.711Z,40.37
2023-10-19T14:16:07.780Z,41.82
2023-10-19T14:18:36.224Z,40.79
2023-10-19T14:21:14.399Z,40.66
2023-10-19T14:23:43.846Z,40.45
2023-10-19T14:26:13.245Z,38.69
2023-10-19T14:28:42.460Z,37.23
2023-10-19T14:31:10.519Z,36.37
2023-10-19T14:33:39.104Z,38.52
2023-10-19T14:36:07.143Z,37.44
2023-10-19T14:38:35.025Z,39.53
2023-10-19T14:41:02.508Z,43.15
2023-10-19T14:43:34.239Z,47.86
2023-10-19T14:46:03.102Z,49.07
2023-10-19T14:48:30.679Z,50.87
2023-10-19T14:50:59.259Z,51.45
2023-10-19T14:53:27.299Z,52.64
2023-10-19T14:56:02.540Z,54.98
2023-10-19T14:58:30.938Z,57.59
2023-10-19T15:00:59.176Z,56.57
2023-10-19T15:03:26.713Z,59.41
2023-10-19T15:05:54.947Z,59.56
2023-10-19T15:08:28.061Z,59.90
2023-10-19T15:10:56.176Z,62.70
2023-10-19T15:13:23.867Z,63.12
2023-10-19T15:15:52.328Z,64.15
2023-10-19T15:18:20.057Z,64.44
2023-10-19T15:20:47.837Z,65.07
2023-10-19T15:23:15.376Z,66.42
2023-10-19T15:25:43.347Z,66.35
2023-10-19T15:28:12.513Z,67.04
2023-10-19T15:30:41.406Z,66.88
2023-10-19T15:33:09.845Z,66.62
2023-10-19T15:35:37.857Z,67.68
2023-10-19T15:38:06.185Z,66.16
2023-10-19T15:40:36.170Z,67.22
2023-10-19T15:43:04.402Z,67.83
2023-10-19T15:45:36.306Z,69.83
2023-10-19T15:48:04.599Z,69.83
2023-10-19T15:50:32.276Z,71.07
2023-10-19T15:53:00.316Z,69.65
2023-10-19T15:55:29.071Z,68.97
2023-10-19T15:57:57.016Z,69.86
2023-10-19T16:00:24.512Z,69.66
2023-10-19T16:02:52.771Z,69.29
2023-10-19T16:05:20.885Z,69.82
2023-10-19T16:07:48.648Z,70.72
2023-10-19T16:10:16.760Z,71.79
2023-10-19T16:12:45.015Z,72.17
2023-10-19T16:15:15.217Z,73.14
2023-10-19T16:17:45.074Z,73.83
2023-10-19T16:20:16.671Z,74.55
2023-10-19T16:22:45.904Z,74.67
2023-10-19T16:25:13.817Z,74.71
2023-10-19T16:27:41.650Z,74.20
2023-10-19T16:30:18.503Z,73.40
2023-10-19T16:32:46.883Z,73.46
2023-10-19T16:35:15.116Z,73.58
2023-10-19T16:37:42.801Z,73.79
2023-10-19T16:40:12.856Z,74.04
2023-10-19T16:42:42.479Z,73.67
2023-10-19T16:45:11.747Z,74.10
2023-10-19T16:47:42.475Z,74.85
2023-10-19T16:50:13.189Z,76.55
2023-10-19T16:52:41.041Z,77.97
2023-10-19T16:55:11.718Z,77.50
2023-10-19T16:57:39.663Z,77.12
2023-10-19T17:00:07.876Z,77.52
2023-10-19T17:02:36.740Z,77.29
2023-10-19T17:05:04.904Z,77.53
2023-10-19T17:07:32.390Z,78.19
2023-10-19T17:09:59.755Z,79.40
2023-10-19T17:12:27.456Z,78.44
2023-10-19T17:14:54.866Z,78.20
2023-10-19T17:17:23.850Z,78.07
2023-10-19T17:19:51.868Z,79.52
2023-10-19T17:22:19.916Z,80.59
2023-10-19T17:24:47.623Z,79.92
2023-10-19T17:27:15.655Z,80.19
2023-10-19T17:29:43.818Z,79.88
2023-10-19T17:32:12.073Z,79.63
2023-10-19T17:34:41.146Z,79.90
2023-10-19T17:37:09.139Z,80.16
2023-10-19T17:39:36.941Z,80.90
2023-10-19T17:42:04.834Z,80.89
2023-10-19T17:44:32.659Z,80.33
2023-10-19T17:47:00.406Z,81.15
2023-10-19T17:49:30.342Z,81.58
2023-10-19T17:51:58.619Z,81.89
2023-10-19T17:54:26.465Z,82.00
2023-10-19T17:56:54.430Z,82.20
2023-10-19T17:59:22.534Z,82.11
2023-10-19T18:01:51.957Z,82.49
2023-10-19T18:04:20.901Z,82.32
2023-10-19T18:06:48.388Z,82.99
2023-10-19T18:09:17.416Z,86.72
2023-10-19T18:11:45.309Z,86.90
2023-10-19T18:14:14.989Z,85.83
2023-10-19T18:16:42.482Z,84.71
2023-10-19T18:19:10.307Z,84.74
2023-10-19T18:21:38.288Z,84.34
2023-10-19T18:24:09.531Z,82.95
2023-10-19T18:26:38.024Z,82.98
2023-10-19T18:29:05.895Z,83.19
2023-10-19T18:31:33.805Z,82.60
2023-10-19T18:34:01.820Z,83.62
2023-10-19T18:36:34.570Z,84.20
2023-10-19T18:39:03.390Z,84.84
2023-10-19T18:41:32.615Z,84.94
2023-10-19T18:44:00.670Z,85.83
2023-10-19T18:46:30.268Z,85.92
2023-10-19T18:48:58.837Z,86.84
2023-10-19T18:51:27.739Z,86.85
2023-10-19T18:53:56.895Z,86.26
2023-10-19T18:56:26.456Z,86.35
2023-10-19T18:58:54.093Z,86.66
2023-10-19T19:01:22.027Z,87.33
2023-10-19T19:03:49.693Z,87.89
2023-10-19T19:06:17.418Z,87.91
2023-10-19T19:08:45.178Z,87.13
2023-10-19T19:11:17.710Z,86.39
2023-10-19T19:13:46.575Z,86.64
2023-10-19T19:16:14.350Z,86.70
2023-10-19T19:18:43.564Z,86.50
2023-10-19T19:21:12.253Z,87.27
2023-10-19T19:23:41.228Z,88.44
2023-10-19T19:26:09.500Z,87.83
2023-10-19T19:28:40.403Z,87.20
2023-10-19T19:31:08.045Z,87.54
2023-10-19T19:33:35.574Z,88.73
2023-10-19T19:36:03.391Z,90.08
2023-10-19T19:38:30.867Z,91.40
2023-10-19T19:40:58.357Z,91.70
2023-10-19T19:43:26.222Z,90.86
2023-10-19T19:45:54.140Z,90.63
2023-10-19T19:48:24.629Z,91.26
2023-10-19T19:50:52.425Z,90.60
2023-10-19T19:53:20.906Z,89.69
2023-10-19T19:55:49.409Z,88.49
2023-10-19T19:58:17.820Z,87.04
2023-10-19T20:00:45.807Z,88.19
2023-10-19T20:03:14.098Z,87.43
2023-10-19T20:05:42.684Z,87.43
2023-10-19T20:08:12.538Z,87.15
2023-10-19T20:10:46.073Z,86.37
2023-10-19T20:13:15.391Z,86.30
2023-10-19T20:15:44.244Z,86.69
2023-10-19T20:18:13.664Z,86.43
2023-10-19T20:20:41.549Z,86.50
2023-10-19T20:23:11.113Z,85.69
2023-10-19T20:25:40.088Z,85.95
2023-10-19T20:28:07.689Z,85.23
2023-10-19T20:30:35.521Z,85.58
2023-10-19T20:33:06.026Z,85.51
2023-10-19T20:35:34.844Z,85.99
2023-10-19T20:38:06.535Z,85.06
2023-10-19T20:40:38.178Z,85.73
2023-10-19T20:53:01.822Z,90.45
2023-10-19T20:55:29.929Z,90.69
2023-10-19T20:57:57.298Z,89.95
2023-10-19T21:00:24.867Z,89.65
2023-10-19T21:02:52.772Z,89.71
2023-10-19T21:05:20.896Z,88.68
2023-10-19T21:07:49.773Z,87.57
2023-10-19T21:10:17.869Z,88.01
2023-10-19T21:12:46.214Z,87.27
2023-10-19T21:15:15.177Z,87.10
2023-10-19T21:17:48.863Z,87.10
2023-10-19T21:20:17.072Z,86.77
2023-10-19T21:22:46.577Z,87.75
2023-10-19T21:25:15.221Z,88.03
2023-10-19T21:27:43.919Z,88.91
2023-10-19T21:30:14.565Z,90.48
2023-10-19T21:32:44.967Z,92.30
2023-10-19T21:35:13.087Z,92.09
2023-10-19T21:37:40.704Z,91.79
2023-10-19T21:40:09.255Z,92.98
2023-10-19T21:42:36.928Z,95.86
2023-10-19T21:45:04.629Z,95.07
2023-10-19T21:47:32.081Z,93.95
2023-10-19T21:50:00.008Z,94.89
2023-10-19T21:52:27.587Z,93.81
2023-10-19T21:54:55.343Z,92.21
2023-10-19T21:57:23.092Z,90.84
2023-10-19T21:59:50.426Z,90.46
2023-10-19T22:02:17.825Z,93.98
2023-10-19T22:04:46.071Z,94.18
2023-10-19T22:07:16.185Z,95.07
2023-10-19T22:09:43.641Z,95.06
2023-10-19T22:12:11.701Z,94.32
2023-10-19T22:14:40.957Z,93.81
2023-10-19T22:17:08.517Z,93.49
2023-10-19T22:19:37.651Z,92.99
2023-10-19T22:22:05.412Z,93.34
2023-10-19T22:24:32.994Z,92.91
2023-10-19T22:27:00.919Z,93.59
2023-10-19T22:29:28.309Z,92.87
2023-10-19T22:31:56.517Z,93.45
2023-10-19T22:34:24.421Z,93.01
2023-10-19T22:36:51.745Z,92.77
2023-10-19T22:39:20.548Z,93.79
2023-10-19T22:41:49.876Z,93.15
2023-10-19T22:44:17.326Z,92.59
2023-10-19T22:46:45.533Z,92.40
2023-10-19T22:49:13.311Z,92.37
2023-10-19T22:51:40.721Z,93.14
2023-10-19T22:54:08.454Z,93.96
2023-10-19T22:56:38.192Z,94.86
2023-10-19T22:59:05.638Z,94.40
2023-10-19T23:01:33.896Z,96.09
2023-10-19T23:04:02.230Z,98.92
2023-10-19T23:06:30.954Z,96.27
2023-10-19T23:09:01.931Z,97.47
2023-10-19T23:11:32.529Z,97.35
2023-10-19T23:14:04.737Z,97.26
2023-10-19T23:16:35.901Z,97.55
2023-10-19T23:19:03.270Z,98.32
2023-10-19T23:21:38.023Z,98.32
2023-10-19T23:24:06.483Z,99.76
2023-10-19T23:26:33.888Z,96.34
2023-10-19T23:29:06.139Z,97.86
2023-10-19T23:31:39.474Z,97.96
2023-10-19T23:34:07.169Z,97.59
2023-10-19T23:36:34.763Z,97.31
2023-10-19T23:39:03.224Z,97.74
2023-10-19T23:41:30.809Z,97.26
2023-10-19T23:43:58.680Z,96.64
2023-10-19T23:46:26.037Z,97.54
2023-10-19T23:48:53.361Z,97.66
2023-10-19T23:51:21.060Z,96.80
2023-10-19T23:53:49.183Z,95.95
2023-10-19T23:56:16.603Z,97.05
2023-10-19T23:58:44.249Z,96.32
